createdAt,value
2022-09-25T00:01:15.897Z,15.60
2022-09-25T00:03:43.403Z,15.70
2022-09-25T00:06:23.642Z,15.70
2022-09-25T00:08:52.946Z,15.70
2022-09-25T00:11:24.074Z,15.70
2022-09-25T00:13:51.897Z,15.70
2022-09-25T00:16:23.950Z,15.70
2022-09-25T00:19:09.852Z,15.70
2022-09-25T00:21:37.807Z,15.70
2022-09-25T00:24:08.416Z,15.70
2022-09-25T00:26:38.357Z,15.70
2022-09-25T00:29:06.874Z,15.70
2022-09-25T00:31:35.118Z,15.70
2022-09-25T00:34:04.486Z,15.70
2022-09-25T00:36:32.426Z,15.60
2022-09-25T00:39:00.429Z,15.60
2022-09-25T00:41:31.579Z,15.60
2022-09-25T00:44:01.171Z,15.60
2022-09-25T00:46:42.384Z,15.60
2022-09-25T00:49:14.519Z,15.60
2022-09-25T00:51:46.966Z,15.60
2022-09-25T00:54:16.830Z,15.60
2022-09-25T00:56:47.904Z,15.50
2022-09-25T00:59:20.785Z,15.50
2022-09-25T01:01:48.653Z,15.50
2022-09-25T01:04:16.920Z,15.50
2022-09-25T01:06:44.520Z,15.50
2022-09-25T01:09:12.060Z,15.50
2022-09-25T01:11:39.495Z,15.60
2022-09-25T01:14:08.824Z,15.60
2022-09-25T01:16:59.404Z,15.60
2022-09-25T01:19:45.733Z,15.60
2022-09-25T01:22:47.328Z,15.60
2022-09-25T01:25:35.881Z,15.50
2022-09-25T01:28:12.015Z,15.50
2022-09-25T01:30:44.623Z,15.50
2022-09-25T01:33:23.167Z,15.40
2022-09-25T01:36:03.263Z,15.50
2022-09-25T01:38:33.641Z,15.60
2022-09-25T01:41:19.113Z,15.60
2022-09-25T01:43:56.537Z,15.60
2022-09-25T01:46:29.061Z,15.60
2022-09-25T01:49:02.397Z,15.60
2022-09-25T01:51:39.141Z,15.60
2022-09-25T01:54:14.480Z,15.50
2022-09-25T01:56:58.401Z,15.40
2022-09-25T02:00:02.779Z,15.30
2022-09-25T02:03:03.023Z,15.30
2022-09-25T02:05:50.839Z,15.30
2022-09-25T02:08:24.250Z,15.30
2022-09-25T02:10:56.010Z,15.30
2022-09-25T02:13:29.178Z,15.30
2022-09-25T02:16:09.179Z,15.30
2022-09-25T02:18:55.539Z,15.30
2022-09-25T02:21:29.092Z,15.30
2022-09-25T02:24:04.986Z,15.30
2022-09-25T02:26:34.269Z,15.30
2022-09-25T02:29:02.493Z,15.40
2022-09-25T02:31:35.879Z,15.30
2022-09-25T02:34:04.272Z,15.30
2022-09-25T02:36:33.842Z,15.30
2022-09-25T02:39:03.517Z,15.30
2022-09-25T02:41:47.042Z,15.20
2022-09-25T02:44:43.527Z,15.30
2022-09-25T02:47:14.243Z,15.30
2022-09-25T02:49:48.546Z,15.30
2022-09-25T02:52:42.292Z,15.40
2022-09-25T02:55:19.660Z,15.40
2022-09-25T02:58:17.398Z,15.40
2022-09-25T03:00:48.902Z,15.40
2022-09-25T03:03:19.622Z,15.40
2022-09-25T03:05:55.312Z,15.40
2022-09-25T03:08:39.371Z,15.40
2022-09-25T03:11:12.533Z,15.40
2022-09-25T03:13:40.847Z,15.30
2022-09-25T03:16:18.788Z,15.30
2022-09-25T03:18:47.775Z,15.30
2022-09-25T03:21:15.468Z,15.30
2022-09-25T03:23:42.888Z,15.30
2022-09-25T03:26:10.353Z,15.30
2022-09-25T03:28:37.926Z,15.20
2022-09-25T03:31:11.578Z,15.30
2022-09-25T03:33:42.029Z,15.20
2022-09-25T03:36:26.981Z,15.30
2022-09-25T03:38:59.576Z,15.30
2022-09-25T03:41:31.852Z,15.40
2022-09-25T03:43:59.788Z,15.40
2022-09-25T03:46:29.430Z,15.40
2022-09-25T03:48:58.005Z,15.40
2022-09-25T03:51:27.604Z,15.30
2022-09-25T03:53:55.479Z,15.30
2022-09-25T03:56:26.598Z,15.30
2022-09-25T03:58:54.781Z,15.30
2022-09-25T04:01:27.514Z,15.30
2022-09-25T04:03:55.378Z,15.30
2022-09-25T04:06:25.772Z,15.30
2022-09-25T04:08:54.289Z,15.20
2022-09-25T04:11:24.109Z,15.20
2022-09-25T04:13:52.709Z,15.20
2022-09-25T04:16:23.630Z,15.20
2022-09-25T04:18:53.085Z,15.20
2022-09-25T04:21:21.337Z,15.20
2022-09-25T04:24:07.523Z,15.20
2022-09-25T04:26:35.117Z,15.20
2022-09-25T04:29:03.389Z,15.20
2022-09-25T04:31:32.034Z,15.20
2022-09-25T04:33:59.523Z,15.20
2022-09-25T04:36:26.923Z,15.30
2022-09-25T04:38:54.347Z,15.30
2022-09-25T04:41:22.057Z,15.30
2022-09-25T04:43:49.421Z,15.20
2022-09-25T04:46:22.052Z,15.30
2022-09-25T04:48:50.557Z,15.20
2022-09-25T04:51:18.269Z,15.20
2022-09-25T04:53:46.705Z,15.20
2022-09-25T04:56:16.352Z,15.20
2022-09-25T04:58:49.422Z,15.30
2022-09-25T05:01:20.236Z,15.30
2022-09-25T05:03:50.194Z,15.20
2022-09-25T05:06:17.806Z,15.20
2022-09-25T05:08:47.444Z,15.30
2022-09-25T05:11:14.825Z,15.40
2022-09-25T05:13:46.794Z,15.30
2022-09-25T05:16:14.452Z,15.30
2022-09-25T05:18:41.862Z,15.30
2022-09-25T05:21:09.522Z,15.30
2022-09-25T05:23:36.885Z,15.30
2022-09-25T05:26:04.276Z,15.30
2022-09-25T05:28:33.106Z,15.30
2022-09-25T05:31:04.700Z,15.30
2022-09-25T05:33:33.442Z,15.30
2022-09-25T05:36:05.520Z,15.30
2022-09-25T05:38:34.151Z,15.40
2022-09-25T05:41:06.818Z,15.40
2022-09-25T05:43:40.145Z,15.40
2022-09-25T05:46:08.031Z,15.40
2022-09-25T05:48:36.033Z,15.50
2022-09-25T05:51:04.151Z,15.60
2022-09-25T05:53:31.721Z,15.60
2022-09-25T05:56:01.687Z,15.70
2022-09-25T05:58:30.692Z,15.80
2022-09-25T06:01:05.893Z,15.90
2022-09-25T06:03:33.426Z,16.10
2022-09-25T06:06:02.096Z,16.30
2022-09-25T06:08:31.604Z,16.50
2022-09-25T06:11:03.836Z,16.60
2022-09-25T06:13:33.174Z,16.80
2022-09-25T06:16:01.382Z,17.00
2022-09-25T06:18:28.876Z,17.00
2022-09-25T06:21:01.823Z,17.10
2022-09-25T06:23:29.536Z,17.10
2022-09-25T06:26:04.983Z,17.10
2022-09-25T06:28:32.937Z,17.20
2022-09-25T06:31:04.437Z,17.20
2022-09-25T06:33:32.081Z,17.20
2022-09-25T06:36:00.717Z,17.20
2022-09-25T06:38:29.074Z,17.40
2022-09-25T06:41:00.103Z,18.00
2022-09-25T06:43:28.566Z,18.70
2022-09-25T06:46:00.161Z,19.10
2022-09-25T06:48:27.677Z,19.20
2022-09-25T06:50:56.936Z,19.50
2022-09-25T06:53:25.937Z,19.50
2022-09-25T06:55:56.941Z,19.30
2022-09-25T06:58:25.556Z,19.10
2022-09-25T07:00:55.185Z,19.00
2022-09-25T07:03:41.916Z,19.10
2022-09-25T07:06:11.466Z,19.30
2022-09-25T07:08:39.398Z,19.50
2022-09-25T07:11:07.378Z,19.80
2022-09-25T07:13:36.204Z,19.80
2022-09-25T07:16:18.385Z,19.60
2022-09-25T07:18:46.743Z,19.70
2022-09-25T07:21:19.170Z,19.90
2022-09-25T07:23:50.215Z,19.90
2022-09-25T07:26:22.249Z,20.00
2022-09-25T07:28:57.512Z,20.00
2022-09-25T07:31:28.541Z,20.10
2022-09-25T07:33:57.300Z,20.20
2022-09-25T07:36:24.739Z,20.30
2022-09-25T07:38:52.725Z,20.50
2022-09-25T07:41:22.752Z,21.40
2022-09-25T07:44:17.584Z,23.10
2022-09-25T07:46:45.970Z,23.40
2022-09-25T07:49:14.043Z,22.60
2022-09-25T07:51:41.475Z,21.90
2022-09-25T07:54:08.997Z,21.30
2022-09-25T07:56:38.123Z,20.70
2022-09-25T07:59:05.810Z,20.50
2022-09-25T08:01:33.339Z,21.00
2022-09-25T08:04:04.017Z,21.80
2022-09-25T08:06:35.014Z,22.40
2022-09-25T08:09:05.599Z,22.60
2022-09-25T08:11:35.682Z,22.50
2022-09-25T08:14:03.282Z,22.20
2022-09-25T08:16:30.645Z,22.00
2022-09-25T08:18:57.995Z,21.70
2022-09-25T08:21:25.431Z,21.70
2022-09-25T08:23:54.299Z,21.40
2022-09-25T08:26:23.244Z,21.40
2022-09-25T08:28:51.791Z,21.70
2022-09-25T08:31:19.650Z,21.90
2022-09-25T08:33:48.822Z,22.10
2022-09-25T08:36:17.107Z,22.20
2022-09-25T08:38:45.649Z,22.10
2022-09-25T08:41:19.098Z,22.10
2022-09-25T08:44:07.442Z,21.90
2022-09-25T08:47:26.821Z,22.10
2022-09-25T08:50:20.211Z,22.00
2022-09-25T08:52:51.692Z,21.90
2022-09-25T08:55:21.871Z,22.10
2022-09-25T08:57:51.570Z,22.10
2022-09-25T09:00:21.448Z,22.40
2022-09-25T09:02:54.114Z,22.60
2022-09-25T09:05:40.661Z,22.60
2022-09-25T09:08:25.542Z,22.70
2022-09-25T09:11:00.816Z,22.70
2022-09-25T09:13:48.396Z,22.90
2022-09-25T09:16:19.372Z,23.00
2022-09-25T09:18:46.867Z,23.50
2022-09-25T09:21:44.682Z,24.40
2022-09-25T09:24:18.032Z,25.60
2022-09-25T09:27:04.302Z,26.60
2022-09-25T09:29:34.785Z,27.60
2022-09-25T09:32:20.298Z,27.40
2022-09-25T09:35:07.304Z,27.10
2022-09-25T10:39:44.226Z,24.70
2022-09-25T10:42:33.120Z,25.00
2022-09-25T10:45:15.108Z,24.50
2022-09-25T10:48:03.961Z,24.10
2022-09-25T10:50:31.352Z,24.10
2022-09-25T10:53:03.774Z,24.30
2022-09-25T10:55:37.262Z,24.20
2022-09-25T10:58:10.680Z,24.00
2022-09-25T11:00:42.252Z,23.90
2022-09-25T11:03:21.161Z,24.00
2022-09-25T11:06:03.911Z,24.20
2022-09-25T11:08:34.973Z,24.00
2022-09-25T11:11:03.258Z,23.80
2022-09-25T11:13:47.855Z,23.50
2022-09-25T11:16:15.886Z,23.20
2022-09-25T11:18:51.472Z,23.00
2022-09-25T11:21:28.373Z,23.20
2022-09-25T11:24:14.673Z,23.40
2022-09-25T11:26:59.736Z,23.60
2022-09-25T11:29:43.207Z,23.70
2022-09-25T11:32:43.245Z,23.90
2022-09-25T11:35:42.200Z,24.00
2022-09-25T11:38:12.588Z,23.80
2022-09-25T11:41:12.665Z,23.70
2022-09-25T11:44:18.165Z,23.70
2022-09-25T11:46:59.922Z,23.50
2022-09-25T11:49:31.359Z,23.40
2022-09-25T11:52:27.963Z,23.20
2022-09-25T11:55:27.780Z,22.80
2022-09-25T11:58:16.903Z,23.00
2022-09-25T12:01:02.799Z,23.10
2022-09-25T12:03:51.849Z,22.80
2022-09-25T12:06:32.058Z,22.80
2022-09-25T12:09:22.249Z,22.60
2022-09-25T12:12:17.529Z,22.60
2022-09-25T12:14:45.264Z,22.60
2022-09-25T12:17:33.072Z,22.60
2022-09-25T12:20:23.217Z,22.50
2022-09-25T12:23:05.382Z,22.60
2022-09-25T12:25:51.498Z,22.80
2022-09-25T12:28:27.786Z,22.60
2022-09-25T12:31:00.389Z,22.60
2022-09-25T12:33:44.429Z,22.70
2022-09-25T12:36:25.034Z,22.80
2022-09-25T12:38:55.377Z,22.90
2022-09-25T12:41:43.638Z,23.20
2022-09-25T12:44:12.854Z,23.10
2022-09-25T12:46:49.846Z,23.20
2022-09-25T12:49:29.288Z,23.20
2022-09-25T12:52:07.744Z,23.40
2022-09-25T12:54:53.196Z,23.60
2022-09-25T12:57:45.726Z,23.70
2022-09-25T13:00:23.174Z,23.60
2022-09-25T13:03:13.743Z,23.40
2022-09-25T13:05:47.633Z,23.40
2022-09-25T13:09:06.866Z,23.30
2022-09-25T13:12:16.886Z,23.20
2022-09-25T13:14:55.228Z,23.30
2022-09-25T13:17:23.756Z,23.10
2022-09-25T13:19:51.225Z,22.90
2022-09-25T13:22:25.045Z,23.00
2022-09-25T13:24:56.420Z,22.80
2022-09-25T13:27:25.858Z,22.80
2022-09-25T13:29:57.483Z,22.90
2022-09-25T13:32:34.626Z,22.80
2022-09-25T13:35:07.851Z,22.70
2022-09-25T13:37:38.522Z,22.60
2022-09-25T13:40:36.892Z,22.40
2022-09-25T13:43:24.301Z,22.50
2022-09-25T13:46:17.808Z,22.70
2022-09-25T13:48:45.967Z,22.70
2022-09-25T13:51:21.890Z,22.60
2022-09-25T13:54:00.062Z,22.60
2022-09-25T13:56:40.711Z,22.60
2022-09-25T13:59:12.383Z,22.50
2022-09-25T14:01:41.578Z,22.50
2022-09-25T14:04:37.001Z,22.40
2022-09-25T14:07:25.883Z,22.40
2022-09-25T14:09:59.065Z,22.10
2022-09-25T14:12:29.027Z,22.10
2022-09-25T14:15:07.623Z,22.00
2022-09-25T14:17:36.930Z,21.90
2022-09-25T14:20:18.528Z,21.80
2022-09-25T14:22:53.693Z,21.90
2022-09-25T14:25:40.667Z,21.90
2022-09-25T14:28:45.165Z,22.00
2022-09-25T14:31:37.229Z,22.00
2022-09-25T14:34:25.923Z,22.10
2022-09-25T14:37:15.720Z,22.00
2022-09-25T14:40:22.527Z,22.00
2022-09-25T14:43:00.998Z,21.90
2022-09-25T14:45:47.149Z,21.80
2022-09-25T14:48:23.444Z,21.80
2022-09-25T14:50:56.026Z,21.90
2022-09-25T14:53:32.199Z,21.80
2022-09-25T14:56:02.554Z,21.70
2022-09-25T14:58:32.862Z,21.80
2022-09-25T15:01:13.953Z,21.60
2022-09-25T15:03:46.875Z,21.70
2022-09-25T15:06:28.367Z,21.70
2022-09-25T15:08:56.130Z,21.70
2022-09-25T15:11:27.209Z,21.70
2022-09-25T15:13:55.650Z,21.80
2022-09-25T15:16:44.190Z,21.60
2022-09-25T15:19:33.192Z,21.50
2022-09-25T15:22:01.233Z,21.40
2022-09-25T15:24:31.568Z,21.30
2022-09-25T15:27:06.222Z,21.20
2022-09-25T15:29:41.511Z,21.10
2022-09-25T15:32:29.746Z,21.10
2022-09-25T15:35:17.510Z,21.10
2022-09-25T15:37:46.018Z,21.20
2022-09-25T15:40:28.019Z,21.20
2022-09-25T15:42:56.396Z,21.30
2022-09-25T15:45:39.756Z,21.30
2022-09-25T15:48:29.182Z,21.20
2022-09-25T15:50:59.118Z,21.10
2022-09-25T15:53:35.981Z,20.90
2022-09-25T15:56:16.291Z,20.60
2022-09-25T15:58:51.417Z,20.50
2022-09-25T16:01:46.488Z,20.40
2022-09-25T16:04:44.018Z,20.40
2022-09-25T16:07:33.882Z,20.20
2022-09-25T16:10:31.408Z,20.10
2022-09-25T16:12:59.231Z,20.10
2022-09-25T16:15:32.147Z,20.00
2022-09-25T16:18:21.617Z,20.00
2022-09-25T16:20:58.145Z,20.00
2022-09-25T16:23:29.946Z,20.00
2022-09-25T16:26:00.189Z,20.00
2022-09-25T16:28:30.503Z,20.10
2022-09-25T16:31:02.385Z,20.00
2022-09-25T16:33:52.908Z,20.00
2022-09-25T16:36:20.558Z,20.00
2022-09-25T16:39:09.591Z,19.90
2022-09-25T16:41:38.938Z,19.80
2022-09-25T16:44:17.832Z,19.70
2022-09-25T16:46:52.797Z,19.70
2022-09-25T16:49:21.081Z,19.60
2022-09-25T16:51:49.814Z,19.60
2022-09-25T16:54:20.249Z,19.50
2022-09-25T16:56:48.899Z,19.40
2022-09-25T16:59:19.432Z,19.40
2022-09-25T17:01:49.180Z,19.30
2022-09-25T17:04:18.140Z,19.20
2022-09-25T17:06:47.520Z,19.20
2022-09-25T17:09:16.824Z,19.10
2022-09-25T17:11:46.427Z,19.20
2022-09-25T17:14:24.393Z,19.10
2022-09-25T17:16:53.135Z,19.00
2022-09-25T17:19:21.315Z,18.90
2022-09-25T17:21:51.412Z,18.80
2022-09-25T17:24:23.919Z,18.80
2022-09-25T17:26:51.962Z,18.80
2022-09-25T17:29:20.344Z,18.70
2022-09-25T17:31:47.776Z,18.70
2022-09-25T17:34:21.586Z,18.70
2022-09-25T17:36:48.944Z,18.60
2022-09-25T17:39:16.359Z,18.50
2022-09-25T17:41:44.423Z,18.50
2022-09-25T17:44:17.925Z,18.50
2022-09-25T17:46:45.575Z,18.40
2022-09-25T17:49:13.415Z,18.40
2022-09-25T17:51:41.924Z,18.40
2022-09-25T17:54:11.707Z,18.40
2022-09-25T17:56:40.147Z,18.30
2022-09-25T17:59:09.097Z,18.30
2022-09-25T18:01:39.479Z,18.20
2022-09-25T18:04:18.150Z,18.20
2022-09-25T18:06:45.527Z,18.10
2022-09-25T18:09:13.004Z,18.10
2022-09-25T18:11:43.696Z,18.10
2022-09-25T18:14:13.025Z,18.10
2022-09-25T18:16:44.865Z,18.00
2022-09-25T18:19:38.422Z,18.00
2022-09-25T18:22:18.829Z,18.00
2022-09-25T18:24:56.750Z,17.90
2022-09-25T18:27:27.034Z,17.90
2022-09-25T18:29:55.058Z,17.90
2022-09-25T18:32:24.084Z,17.80
2022-09-25T18:34:51.780Z,17.90
2022-09-25T18:37:19.199Z,17.80
2022-09-25T18:39:48.006Z,17.80
2022-09-25T18:42:15.816Z,17.70
2022-09-25T18:44:43.452Z,17.70
2022-09-25T18:47:11.672Z,17.60
2022-09-25T18:49:39.108Z,17.70
2022-09-25T18:52:06.780Z,17.80
2022-09-25T18:54:34.569Z,17.70
2022-09-25T18:57:02.235Z,17.70
2022-09-25T18:59:30.007Z,17.60
2022-09-25T19:01:57.577Z,17.60
2022-09-25T19:04:25.964Z,17.60
2022-09-25T19:06:53.464Z,17.60
2022-09-25T19:09:27.444Z,17.60
2022-09-25T19:11:55.428Z,17.60
2022-09-25T19:14:25.107Z,17.60
2022-09-25T19:16:53.326Z,17.60
2022-09-25T19:19:20.985Z,17.60
2022-09-25T19:21:48.392Z,17.60
2022-09-25T19:24:18.240Z,17.60
2022-09-25T19:26:45.802Z,17.60
2022-09-25T19:29:13.414Z,17.60
2022-09-25T19:31:41.226Z,17.50
2022-09-25T19:34:09.299Z,17.40
2022-09-25T19:36:37.860Z,17.30
2022-09-25T19:39:05.333Z,17.30
2022-09-25T19:41:35.144Z,17.30
2022-09-25T19:44:12.194Z,17.30
2022-09-25T19:46:45.995Z,17.30
2022-09-25T19:49:15.125Z,17.40
2022-09-25T19:51:43.112Z,17.30
2022-09-25T19:54:14.006Z,17.20
2022-09-25T19:56:47.107Z,17.20
2022-09-25T19:59:15.847Z,17.10
2022-09-25T20:01:43.972Z,17.10
2022-09-25T20:04:17.408Z,17.00
2022-09-25T20:06:46.770Z,17.00
2022-09-25T20:09:14.514Z,16.90
2022-09-25T20:11:42.105Z,16.90
2022-09-25T20:14:09.980Z,16.90
2022-09-25T20:16:37.718Z,16.90
2022-09-25T20:19:06.793Z,16.90
2022-09-25T20:21:39.140Z,17.00
2022-09-25T20:24:07.926Z,17.00
2022-09-25T20:26:36.539Z,17.00
2022-09-25T20:29:08.848Z,17.00
2022-09-25T20:31:36.774Z,16.80
2022-09-25T20:34:04.259Z,16.80
2022-09-25T20:36:31.813Z,16.80
2022-09-25T20:39:00.856Z,16.70
2022-09-25T20:41:28.313Z,16.70
2022-09-25T20:43:57.420Z,16.70
2022-09-25T20:46:26.520Z,16.70
2022-09-25T20:48:57.084Z,16.60
2022-09-25T20:51:29.015Z,16.60
2022-09-25T20:54:02.053Z,16.50
2022-09-25T20:56:31.234Z,16.50
2022-09-25T20:59:05.854Z,16.40
2022-09-25T21:01:36.591Z,16.30
2022-09-25T21:04:08.078Z,16.30
2022-09-25T21:06:37.674Z,16.40
2022-09-25T21:09:18.147Z,16.30
2022-09-25T21:11:45.779Z,16.30
2022-09-25T21:14:19.602Z,16.20
2022-09-25T21:16:47.968Z,16.30
2022-09-25T21:19:19.727Z,16.30
2022-09-25T21:21:48.459Z,16.30
2022-09-25T21:24:18.210Z,16.30
2022-09-25T21:26:46.569Z,16.30
2022-09-25T21:29:15.917Z,16.30
2022-09-25T21:31:49.374Z,16.30
2022-09-25T21:34:19.063Z,16.20
2022-09-25T21:36:46.976Z,16.20
2022-09-25T21:39:14.782Z,16.20
2022-09-25T21:41:42.389Z,16.10
2022-09-25T21:44:14.907Z,16.20
2022-09-25T21:46:44.008Z,16.20
2022-09-25T21:49:17.830Z,16.20
2022-09-25T21:51:46.558Z,16.20
2022-09-25T21:54:15.279Z,16.10
2022-09-25T21:56:44.458Z,16.20
2022-09-25T21:59:12.614Z,16.20
2022-09-25T22:01:40.412Z,16.20
2022-09-25T22:04:12.078Z,16.30
2022-09-25T22:06:45.456Z,16.20
2022-09-25T22:09:19.328Z,16.20
2022-09-25T22:11:47.934Z,16.30
2022-09-25T22:14:18.584Z,16.30
2022-09-25T22:16:48.577Z,16.30
2022-09-25T22:19:17.652Z,16.40
2022-09-25T22:21:47.435Z,16.50
2022-09-25T22:24:15.189Z,16.50
2022-09-25T22:26:44.606Z,16.50
2022-09-25T22:29:12.492Z,16.60
2022-09-25T22:31:43.214Z,16.60
2022-09-25T22:34:29.417Z,16.60
2022-09-25T22:36:59.879Z,16.60
2022-09-25T22:39:28.712Z,16.60
2022-09-25T22:41:56.711Z,16.60
2022-09-25T22:44:24.352Z,16.60
2022-09-25T22:46:51.902Z,16.50
2022-09-25T22:49:19.327Z,16.50
2022-09-25T22:51:46.717Z,16.40
2022-09-25T22:54:15.248Z,16.40
2022-09-25T22:56:43.626Z,16.30
2022-09-25T22:59:16.706Z,16.30
2022-09-25T23:01:51.055Z,16.20
2022-09-25T23:04:21.984Z,16.20
2022-09-25T23:06:50.161Z,16.10
2022-09-25T23:09:24.925Z,16.20
2022-09-25T23:11:53.793Z,16.20
2022-09-25T23:14:25.586Z,16.20
2022-09-25T23:16:54.553Z,16.20
2022-09-25T23:19:23.021Z,16.30
2022-09-25T23:21:55.889Z,16.30
2022-09-25T23:24:24.129Z,16.40
2022-09-25T23:26:52.630Z,16.30
2022-09-25T23:29:22.137Z,16.30
2022-09-25T23:31:50.975Z,16.30
2022-09-25T23:34:19.124Z,16.20
2022-09-25T23:36:46.813Z,16.10
2022-09-25T23:39:19.667Z,16.10
2022-09-25T23:41:47.354Z,16.10
2022-09-25T23:44:14.747Z,16.10
2022-09-25T23:46:43.995Z,16.00
2022-09-25T23:49:14.868Z,15.90
2022-09-25T23:51:42.381Z,15.80
2022-09-25T23:54:10.306Z,15.70
2022-09-25T23:56:38.883Z,15.60
2022-09-25T23:59:06.865Z,15.50
